METAR AND TAF INFORMATION
METAR FOR EHWO
ADDS - METARS form results

(2001 UTC 21 August 2019)
Data provider http://aviationweather.gov/metar/data/
 
METAR text: EHWO 211955Z AUTO 07002KT 9999 NCD 13/11 Q1026 BLU
Conditions at: EHWO (WOENSDRECHT RNLA, NL) observed 1955 UTC 21 August 2019
Temperature: 13.0°C (55°F)
Dewpoint: 11.0°C (52°F) [RH = 88%]
Pressure (altimeter): 30.30 inches Hg (1026.0 mb)
Winds: from the ENE (70 degrees) at 2 MPH (2 knots; 1.0 m/s)
Visibility: 6 or more miles (10+ km)
Ceiling: at least 12,000 feet AGL
Clouds: sky clear below 12,000 feet AGL
Weather: no significant weather observed at this time

METAR text: EHWO 211925Z AUTO 07001KT 9999 NCD 15/11 Q1026 BLU
Conditions at: EHWO (WOENSDRECHT RNLA, NL) observed 1925 UTC 21 August 2019
Temperature: 15.0°C (59°F)
Dewpoint: 11.0°C (52°F) [RH = 77%]
Pressure (altimeter): 30.30 inches Hg (1026.0 mb)
Winds: from the ENE (70 degrees) at 1 MPH (1 knots; 0.5 m/s)
Visibility: 6 or more miles (10+ km)
Ceiling: at least 12,000 feet AGL
Clouds: sky clear below 12,000 feet AGL
Weather: no significant weather observed at this time

Forecast for: EHWO (WOENSDRECHT RNLA, NL)
Text: TAF EHWO 211243Z 2113/2201 VRB03KT CAVOK
Forecast period: 1300 to 2200 UTC 21 August 2019
Forecast type: FROM: standard forecast or significant change
Winds: variable direction winds at 3 MPH (3 knots; 1.5 m/s)
Visibility: 6 or more miles 10+ km)
Ceiling: unknown
Clouds: missing
Weather: NSW  (no significant weather)
Text: BECMG 2122/2124 13004KT
Forecast period: 2200 UTC 21 August 2019 to 0100 UTC 22 August 2019
Forecast type: BECOMING: Conditions expected to become as follows by 0000 UTC 22 August 2019
Winds: from the SE (130 degrees) at 5 MPH (4 knots; 2.1 m/s)
Visibility: 6 or more miles 10+ km)
Ceiling: unknown
Clouds: missing
Weather: NSW  (no significant weather)

 AIRPORT MAP

 RUNWAY INFORMATION
Runway 07 Runway length 7996 ft Runway width 148 ft
Runway elevation 39 ft Runway displaced threshold 0 ft Runway heading 69
Runway 25 Runway length 7996 ft Runway width 148 ft
Runway elevation 63 ft Runway displaced threshold 0 ft Runway heading 249

 AIRPORT FREQUENCIES
Type APP Name RAPCON WES Frequency 123.575 MHZ
Type ARR Name ARRIVAL Frequency 123.575 MHZ
Type TWR Name TWR Frequency 118.5 MHZ

 AIRPORT NEAR NAVIGATION AIDS
Type TACAN Name Woensdrecht Frequency 115000 KHZ